Esperanca, Brazil
Current Conditions -  °F | °C
As of 8:00 AM on Monday 22 Dec 2014 (Local Time) from SBKG Reporting Station
Broken Clouds Broken Clouds  
Wind Chill: 75°   Ceiling: 1800
Heat Index: 75°   Visibility: 6mi
Dew Point: 68°   Wind: 14mph
Humidity: 78%   Direction: 110°ESE
Pressure: 30"   Gusts: NA
Location:  7.03°S, 35.86°W
Report Text: SBKG 221100Z 11012KT 9999 BKN018 24/20 Q1016
Loading
Personal Weather Stations






























Interactive Weather Map New forecast layout! Learn more

10-Day Weather Forecast

Advertisements
Track Severe Weather on mobile